Weather at Anxiety Aerodrome

Public forecast

Using degrees Fahrenheit for public forecast. Weather courtesy of forecast.io.

Closest aviation weather report (METAR) to Anxiety Aerodrome

Closest report is C David Campbell Field Corsicana Municipal Airport, 6.7 nm (12.4 km) E.

2024/02/28 12:53 (retrieved 26 minutes ago)

KCRS 281253Z AUTO 36015G29KT 10SM -RA FEW070 BKN100 09/M02 A3010 RMK AO2 PK WND 35037/1209 RAB53 SLP192 P0000 T00941022

Closest aviation forecast (TAF) to Anxiety Aerodrome

Closest forecast is Waco Regional Airport, 43.9 nm (81.3 km) SW.

2024/02/28 12:22 (retrieved 57 minutes ago)

TAF KACT 281120Z 2812/2912 35020G30KT P6SM OVC200 FM282100 01015G25KT P6SM OVC200 FM290100 02013KT P6SM OVC250